Terminal Aerodrome Forecast
Issued by NWS

Home | Current Version | Previous Version | Text Only | Print | Product List | Glossary Off
Versions: 1 2 3 4 5 6 7 8 9 10 11 12 13 14 15

065
FTUS43 KICT 081128
TAFHUT
TAF
KHUT 081128Z 0812/0912 31018G26KT P6SM FEW060
     FM081600 33028G37KT P6SM SKC
     FM090000 33018G25KT P6SM FEW250
     FM090400 33014KT P6SM SCT250=

USA.gov is the U.S. government's official web portal to all federal, state and local government web resources and services.